Saranac Lake, NY

10:29 PM EDT on September 01, 2014 (GMT -0400)
North Country Community College | Change Station
CLOSE
Current Station
Personal Weather Station
Location: Saranac Lake, NY
Elevation: 1600 ft
Nearby Weather Stations

Elev 1600 ft 44.32 °N, 74.12 °W | Updated 4 seconds ago

Clear
Clear
64.1 °F
Feels Like 64.1 °F
N
0.0
Wind Variable Wind from SSE
Gusts 1.0 mph

Today
High -- | Low -- °F
--% Chance of Precip.
Yesterday
High -- | Low -- °F
Precip. -- in
6:19 AM 7:32 PM
Waxing Crescent, 46% visible
Pressure 29.94 in
Visibility 2.5 miles
Clouds Clear
Dew Point 62 °F
Humidity 93%
Rainfall 0.13 in
Snow Depth Not available.
UV 0 out of 12
Pollen 6.90 out of 12
Air Quality Not available.
Flu Activity Not available.
SPECI KSLK 020218Z AUTO 00000KT 2 1/2SM BR CLR 15/14 A2994 RMK AO2 VIS 1 1/4V4 T01500144

More Conditions Fewer Conditions

Pressure 29.94 in
Visibility 2.5 miles
Clouds Clear
Dew Point 62 °F
Humidity 93%
Rainfall 0.13 in
Snow Depth Not available.
UV 0 out of 12
Pollen 6.90 out of 12
Air Quality Not available.
Flu Activity Not available.
SPECI KSLK 020218Z AUTO 00000KT 2 1/2SM BR CLR 15/14 A2994 RMK AO2 VIS 1 1/4V4 T01500144

More Conditions Fewer Conditions

10-Day Weather Forecast

Almanac

Astronomy

Sep. 01, 2014 Rise Set
Actual Time 6:19 AM EDT 7:32 PM EDT
Civil Twilight 5:49 AM EDT 8:02 PM EDT
Nautical Twilight 5:13 AM EDT 8:38 PM EDT
Astronomical Twilight 4:35 AM EDT 9:16 PM EDT
Moon 1:17 PM EDT (9/1) 11:16 PM EDT (9/1)
Length of Visible Light 14h 13m
Length of Day
13h 13m
Tomorrow will be 2m 58s shorter.
Waxing Crescent, 46% of the Moon is Illuminated
Today
Waxing Crescent
Sep 2
First Quarter
Sep 8
Full
Sep 15
Last Quarter
Sep 24
New

Today's Extremes

State Highs State Lows

Community

WunderPhotos

Upload Photos

1,749,500 photos uploaded!

Nearby

Air Quality

  Air Quality AQ Index Pollutant
Monday Moderate
OZONE
Monday Good
PM2.5
Tuesday Good
PM2.5
Tuesday Good
OZONE

Snow Depth

Station Depth Elevation
No new snow has been reported.

Earthquake Activity

City Distance Mag. Time & Date
No recent earthquake activity has been reported nearby.
Minimum magnitude displayed is 2.5.

Coastal Water Temperatures

Place Temperature
No Stations Reporting

Nearby Weather Stations